sensor_id;sensor_type;location;lat;lon;timestamp;P1;durP1;ratioP1;P2;durP2;ratioP2
39996;SDS011;25688;52.338;21.072;2024-01-11T00:25:31;113.03;;;34.90;;
39996;SDS011;25688;52.338;21.072;2024-01-11T09:33:44;63.67;;;21.40;;
39996;SDS011;25688;52.338;21.072;2024-01-11T09:36:28;65.15;;;22.65;;
39996;SDS011;25688;52.338;21.072;2024-01-11T09:39:16;69.75;;;23.08;;
39996;SDS011;25688;52.338;21.072;2024-01-11T09:41:51;63.05;;;19.17;;
39996;SDS011;25688;52.338;21.072;2024-01-11T09:55:50;59.85;;;20.08;;
39996;SDS011;25688;52.338;21.072;2024-01-11T10:01:25;59.88;;;21.35;;
39996;SDS011;25688;52.338;21.072;2024-01-11T10:04:01;65.57;;;20.88;;
39996;SDS011;25688;52.338;21.072;2024-01-11T10:19:49;73.18;;;22.85;;
39996;SDS011;25688;52.338;21.072;2024-01-11T10:22:59;73.93;;;22.38;;
39996;SDS011;25688;52.338;21.072;2024-01-11T10:55:22;81.20;;;26.98;;
39996;SDS011;25688;52.338;21.072;2024-01-11T11:08:32;80.78;;;24.38;;
39996;SDS011;25688;52.338;21.072;2024-01-11T11:16:48;97.88;;;27.20;;
39996;SDS011;25688;52.338;21.072;2024-01-11T11:19:38;110.82;;;37.22;;
39996;SDS011;25688;52.338;21.072;2024-01-11T11:22:15;81.57;;;26.85;;
39996;SDS011;25688;52.338;21.072;2024-01-11T11:51:27;96.80;;;28.33;;
39996;SDS011;25688;52.338;21.072;2024-01-11T11:54:32;102.25;;;29.77;;
39996;SDS011;25688;52.338;21.072;2024-01-11T11:59:52;96.22;;;28.98;;
39996;SDS011;25688;52.338;21.072;2024-01-11T12:02:41;101.38;;;30.17;;
39996;SDS011;25688;52.338;21.072;2024-01-11T12:05:09;111.22;;;31.27;;
39996;SDS011;25688;52.338;21.072;2024-01-11T12:10:22;111.00;;;30.33;;
39996;SDS011;25688;52.338;21.072;2024-01-11T12:15:26;102.72;;;29.20;;
39996;SDS011;25688;52.338;21.072;2024-01-11T12:21:17;111.43;;;30.13;;
39996;SDS011;25688;52.338;21.072;2024-01-11T12:36:51;98.78;;;33.92;;
39996;SDS011;25688;52.338;21.072;2024-01-11T12:39:18;93.07;;;30.02;;
39996;SDS011;25688;52.338;21.072;2024-01-11T12:41:47;97.22;;;33.22;;
39996;SDS011;25688;52.338;21.072;2024-01-11T12:44:17;99.28;;;29.85;;
39996;SDS011;25688;52.338;21.072;2024-01-11T12:46:44;104.10;;;30.98;;
39996;SDS011;25688;52.338;21.072;2024-01-11T12:49:10;87.05;;;30.17;;
39996;SDS011;25688;52.338;21.072;2024-01-11T12:51:36;95.90;;;33.00;;
39996;SDS011;25688;52.338;21.072;2024-01-11T12:54:01;100.68;;;31.48;;
39996;SDS011;25688;52.338;21.072;2024-01-11T12:56:29;97.13;;;30.67;;
39996;SDS011;25688;52.338;21.072;2024-01-11T12:59:07;101.45;;;30.70;;
39996;SDS011;25688;52.338;21.072;2024-01-11T13:01:35;99.45;;;31.33;;
39996;SDS011;25688;52.338;21.072;2024-01-11T13:04:01;96.45;;;31.35;;
39996;SDS011;25688;52.338;21.072;2024-01-11T13:06:28;96.13;;;29.45;;
39996;SDS011;25688;52.338;21.072;2024-01-11T13:08:56;102.00;;;31.92;;
39996;SDS011;25688;52.338;21.072;2024-01-11T13:11:21;93.47;;;31.60;;
39996;SDS011;25688;52.338;21.072;2024-01-11T13:13:49;101.57;;;30.55;;
39996;SDS011;25688;52.338;21.072;2024-01-11T13:16:16;106.63;;;33.75;;
39996;SDS011;25688;52.338;21.072;2024-01-11T13:18:45;90.43;;;30.50;;
39996;SDS011;25688;52.338;21.072;2024-01-11T13:21:11;88.07;;;29.00;;
39996;SDS011;25688;52.338;21.072;2024-01-11T13:23:37;93.85;;;30.02;;
39996;SDS011;25688;52.338;21.072;2024-01-11T13:26:04;95.45;;;31.70;;
39996;SDS011;25688;52.338;21.072;2024-01-11T13:28:31;91.53;;;31.27;;
39996;SDS011;25688;52.338;21.072;2024-01-11T13:30:58;87.75;;;30.70;;
39996;SDS011;25688;52.338;21.072;2024-01-11T13:33:24;91.35;;;29.52;;
39996;SDS011;25688;52.338;21.072;2024-01-11T13:35:50;99.60;;;32.80;;
39996;SDS011;25688;52.338;21.072;2024-01-11T13:38:16;94.05;;;31.48;;
39996;SDS011;25688;52.338;21.072;2024-01-11T13:40:42;90.07;;;31.25;;
39996;SDS011;25688;52.338;21.072;2024-01-11T13:43:08;88.65;;;29.17;;
39996;SDS011;25688;52.338;21.072;2024-01-11T13:45:35;90.38;;;30.90;;
39996;SDS011;25688;52.338;21.072;2024-01-11T13:48:02;86.88;;;30.80;;
39996;SDS011;25688;52.338;21.072;2024-01-11T13:50:29;89.72;;;31.42;;
39996;SDS011;25688;52.338;21.072;2024-01-11T13:52:54;94.40;;;30.80;;
39996;SDS011;25688;52.338;21.072;2024-01-11T13:55:20;95.65;;;32.63;;
39996;SDS011;25688;52.338;21.072;2024-01-11T13:57:46;88.93;;;29.90;;
39996;SDS011;25688;52.338;21.072;2024-01-11T14:00:13;88.45;;;31.88;;
39996;SDS011;25688;52.338;21.072;2024-01-11T14:02:39;91.45;;;30.95;;
39996;SDS011;25688;52.338;21.072;2024-01-11T14:05:06;91.00;;;32.03;;
39996;SDS011;25688;52.338;21.072;2024-01-11T14:07:36;91.90;;;32.17;;
39996;SDS011;25688;52.338;21.072;2024-01-11T14:10:03;88.53;;;32.15;;
39996;SDS011;25688;52.338;21.072;2024-01-11T14:12:30;98.07;;;30.83;;
39996;SDS011;25688;52.338;21.072;2024-01-11T14:14:56;88.55;;;32.65;;
39996;SDS011;25688;52.338;21.072;2024-01-11T14:17:22;87.85;;;31.08;;
39996;SDS011;25688;52.338;21.072;2024-01-11T14:19:48;89.90;;;30.17;;
39996;SDS011;25688;52.338;21.072;2024-01-11T14:22:13;95.50;;;32.95;;
39996;SDS011;25688;52.338;21.072;2024-01-11T14:24:39;89.93;;;30.60;;
39996;SDS011;25688;52.338;21.072;2024-01-11T14:27:05;99.35;;;33.50;;
39996;SDS011;25688;52.338;21.072;2024-01-11T14:29:31;92.38;;;31.23;;
39996;SDS011;25688;52.338;21.072;2024-01-11T14:31:57;93.10;;;32.97;;
39996;SDS011;25688;52.338;21.072;2024-01-11T14:34:22;99.30;;;32.70;;
39996;SDS011;25688;52.338;21.072;2024-01-11T14:36:49;92.32;;;32.85;;
39996;SDS011;25688;52.338;21.072;2024-01-11T14:39:15;92.50;;;32.80;;
39996;SDS011;25688;52.338;21.072;2024-01-11T14:41:41;88.20;;;31.85;;
39996;SDS011;25688;52.338;21.072;2024-01-11T14:44:07;103.75;;;35.17;;
39996;SDS011;25688;52.338;21.072;2024-01-11T14:46:35;105.43;;;34.28;;
39996;SDS011;25688;52.338;21.072;2024-01-11T14:49:00;99.18;;;37.15;;
39996;SDS011;25688;52.338;21.072;2024-01-11T14:51:26;105.18;;;36.30;;
39996;SDS011;25688;52.338;21.072;2024-01-11T14:53:56;102.60;;;35.00;;
39996;SDS011;25688;52.338;21.072;2024-01-11T14:56:21;96.50;;;33.10;;
39996;SDS011;25688;52.338;21.072;2024-01-11T14:58:47;98.05;;;34.08;;
39996;SDS011;25688;52.338;21.072;2024-01-11T15:01:12;97.85;;;34.08;;
39996;SDS011;25688;52.338;21.072;2024-01-11T15:03:39;99.97;;;36.60;;
39996;SDS011;25688;52.338;21.072;2024-01-11T15:06:05;96.45;;;34.10;;
39996;SDS011;25688;52.338;21.072;2024-01-11T15:08:31;117.45;;;37.67;;
39996;SDS011;25688;52.338;21.072;2024-01-11T15:10:57;94.93;;;36.42;;
39996;SDS011;25688;52.338;21.072;2024-01-11T15:13:22;79.97;;;32.38;;
39996;SDS011;25688;52.338;21.072;2024-01-11T15:15:48;81.50;;;33.30;;
39996;SDS011;25688;52.338;21.072;2024-01-11T15:18:14;80.88;;;32.55;;
39996;SDS011;25688;52.338;21.072;2024-01-11T15:20:39;80.10;;;31.42;;
39996;SDS011;25688;52.338;21.072;2024-01-11T15:23:05;73.18;;;30.40;;
39996;SDS011;25688;52.338;21.072;2024-01-11T15:25:31;67.63;;;30.00;;
39996;SDS011;25688;52.338;21.072;2024-01-11T15:27:56;68.85;;;28.80;;
39996;SDS011;25688;52.338;21.072;2024-01-11T15:30:22;67.30;;;28.35;;
39996;SDS011;25688;52.338;21.072;2024-01-11T15:32:48;73.82;;;28.33;;
39996;SDS011;25688;52.338;21.072;2024-01-11T15:35:14;62.53;;;28.52;;
39996;SDS011;25688;52.338;21.072;2024-01-11T15:37:40;62.38;;;27.38;;
39996;SDS011;25688;52.338;21.072;2024-01-11T15:40:05;65.05;;;30.48;;
39996;SDS011;25688;52.338;21.072;2024-01-11T15:42:33;65.55;;;30.98;;
39996;SDS011;25688;52.338;21.072;2024-01-11T15:44:59;60.95;;;27.25;;
39996;SDS011;25688;52.338;21.072;2024-01-11T15:47:27;58.30;;;26.52;;
39996;SDS011;25688;52.338;21.072;2024-01-11T15:49:53;61.67;;;27.80;;
39996;SDS011;25688;52.338;21.072;2024-01-11T15:52:19;59.63;;;26.48;;
39996;SDS011;25688;52.338;21.072;2024-01-11T15:54:44;74.15;;;30.83;;
39996;SDS011;25688;52.338;21.072;2024-01-11T15:57:11;71.18;;;29.52;;
39996;SDS011;25688;52.338;21.072;2024-01-11T15:59:37;62.17;;;26.92;;
39996;SDS011;25688;52.338;21.072;2024-01-11T16:02:02;55.67;;;24.77;;
39996;SDS011;25688;52.338;21.072;2024-01-11T16:04:29;58.83;;;26.17;;
39996;SDS011;25688;52.338;21.072;2024-01-11T16:06:55;57.85;;;25.73;;
39996;SDS011;25688;52.338;21.072;2024-01-11T16:09:26;57.45;;;26.25;;
39996;SDS011;25688;52.338;21.072;2024-01-11T16:11:54;54.55;;;24.98;;
39996;SDS011;25688;52.338;21.072;2024-01-11T16:14:21;53.90;;;23.23;;
39996;SDS011;25688;52.338;21.072;2024-01-11T16:16:46;51.65;;;25.80;;
39996;SDS011;25688;52.338;21.072;2024-01-11T16:19:12;59.80;;;27.23;;
39996;SDS011;25688;52.338;21.072;2024-01-11T16:21:38;57.47;;;25.20;;
39996;SDS011;25688;52.338;21.072;2024-01-11T16:24:04;59.45;;;26.17;;
39996;SDS011;25688;52.338;21.072;2024-01-11T16:26:32;57.20;;;26.13;;
39996;SDS011;25688;52.338;21.072;2024-01-11T16:28:58;58.40;;;25.67;;
39996;SDS011;25688;52.338;21.072;2024-01-11T16:31:24;55.10;;;24.15;;
39996;SDS011;25688;52.338;21.072;2024-01-11T16:33:49;57.10;;;24.80;;
39996;SDS011;25688;52.338;21.072;2024-01-11T16:36:15;58.20;;;25.33;;
39996;SDS011;25688;52.338;21.072;2024-01-11T16:38:42;57.17;;;26.40;;
39996;SDS011;25688;52.338;21.072;2024-01-11T16:41:07;52.30;;;25.70;;
39996;SDS011;25688;52.338;21.072;2024-01-11T16:43:34;51.05;;;24.77;;
39996;SDS011;25688;52.338;21.072;2024-01-11T16:46:00;55.17;;;25.70;;
39996;SDS011;25688;52.338;21.072;2024-01-11T16:48:26;49.05;;;22.88;;
39996;SDS011;25688;52.338;21.072;2024-01-11T16:50:52;49.78;;;23.60;;
39996;SDS011;25688;52.338;21.072;2024-01-11T16:53:18;48.70;;;23.80;;
39996;SDS011;25688;52.338;21.072;2024-01-11T16:55:45;48.92;;;22.52;;
39996;SDS011;25688;52.338;21.072;2024-01-11T16:58:11;45.92;;;21.48;;
39996;SDS011;25688;52.338;21.072;2024-01-11T17:00:40;46.88;;;24.48;;
39996;SDS011;25688;52.338;21.072;2024-01-11T17:03:06;57.65;;;27.33;;
39996;SDS011;25688;52.338;21.072;2024-01-11T17:05:33;49.65;;;22.90;;
39996;SDS011;25688;52.338;21.072;2024-01-11T17:07:59;53.38;;;25.30;;
39996;SDS011;25688;52.338;21.072;2024-01-11T17:10:25;45.42;;;21.67;;
39996;SDS011;25688;52.338;21.072;2024-01-11T17:12:51;48.17;;;22.00;;
39996;SDS011;25688;52.338;21.072;2024-01-11T17:15:17;38.78;;;19.67;;
39996;SDS011;25688;52.338;21.072;2024-01-11T17:17:42;42.38;;;20.95;;
39996;SDS011;25688;52.338;21.072;2024-01-11T17:20:09;46.70;;;21.92;;
39996;SDS011;25688;52.338;21.072;2024-01-11T17:22:36;40.63;;;19.80;;
39996;SDS011;25688;52.338;21.072;2024-01-11T17:25:02;43.75;;;20.80;;
39996;SDS011;25688;52.338;21.072;2024-01-11T17:27:28;42.88;;;20.23;;
39996;SDS011;25688;52.338;21.072;2024-01-11T17:29:53;50.50;;;24.80;;
39996;SDS011;25688;52.338;21.072;2024-01-11T17:32:19;40.00;;;20.25;;
39996;SDS011;25688;52.338;21.072;2024-01-11T17:34:45;43.65;;;20.35;;
39996;SDS011;25688;52.338;21.072;2024-01-11T17:39:49;39.40;;;20.38;;
39996;SDS011;25688;52.338;21.072;2024-01-11T17:42:15;48.08;;;22.48;;
39996;SDS011;25688;52.338;21.072;2024-01-11T17:44:41;36.67;;;17.63;;
39996;SDS011;25688;52.338;21.072;2024-01-11T17:47:07;34.67;;;18.17;;
39996;SDS011;25688;52.338;21.072;2024-01-11T17:49:33;38.50;;;17.77;;
39996;SDS011;25688;52.338;21.072;2024-01-11T17:51:58;29.08;;;15.55;;
39996;SDS011;25688;52.338;21.072;2024-01-11T17:54:24;29.10;;;14.85;;
39996;SDS011;25688;52.338;21.072;2024-01-11T17:56:50;24.38;;;12.32;;
39996;SDS011;25688;52.338;21.072;2024-01-11T17:59:16;24.90;;;13.05;;
39996;SDS011;25688;52.338;21.072;2024-01-11T18:01:42;19.92;;;9.55;;
39996;SDS011;25688;52.338;21.072;2024-01-11T18:04:08;22.50;;;10.02;;
39996;SDS011;25688;52.338;21.072;2024-01-11T18:06:33;16.50;;;8.90;;
39996;SDS011;25688;52.338;21.072;2024-01-11T18:09:00;17.33;;;8.82;;
39996;SDS011;25688;52.338;21.072;2024-01-11T18:11:26;17.25;;;7.72;;
39996;SDS011;25688;52.338;21.072;2024-01-11T18:13:52;15.60;;;7.90;;
39996;SDS011;25688;52.338;21.072;2024-01-11T18:16:17;18.17;;;6.90;;
39996;SDS011;25688;52.338;21.072;2024-01-11T18:18:45;17.85;;;6.32;;
39996;SDS011;25688;52.338;21.072;2024-01-11T18:21:13;13.45;;;6.13;;
39996;SDS011;25688;52.338;21.072;2024-01-11T18:23:40;12.60;;;5.30;;
39996;SDS011;25688;52.338;21.072;2024-01-11T18:26:08;8.20;;;3.60;;
39996;SDS011;25688;52.338;21.072;2024-01-11T18:28:34;13.77;;;4.82;;
39996;SDS011;25688;52.338;21.072;2024-01-11T18:31:00;16.08;;;4.68;;
39996;SDS011;25688;52.338;21.072;2024-01-11T18:33:25;13.45;;;5.45;;
39996;SDS011;25688;52.338;21.072;2024-01-11T18:35:51;15.02;;;4.93;;
39996;SDS011;25688;52.338;21.072;2024-01-11T18:38:17;13.20;;;3.80;;
39996;SDS011;25688;52.338;21.072;2024-01-11T18:40:43;18.83;;;4.78;;
39996;SDS011;25688;52.338;21.072;2024-01-11T18:43:09;11.40;;;3.97;;
39996;SDS011;25688;52.338;21.072;2024-01-11T18:45:35;10.95;;;3.35;;
39996;SDS011;25688;52.338;21.072;2024-01-11T18:48:01;9.98;;;4.50;;
39996;SDS011;25688;52.338;21.072;2024-01-11T18:50:30;10.13;;;4.25;;
39996;SDS011;25688;52.338;21.072;2024-01-11T18:52:56;12.32;;;4.15;;
39996;SDS011;25688;52.338;21.072;2024-01-11T18:55:22;11.07;;;3.83;;
39996;SDS011;25688;52.338;21.072;2024-01-11T18:57:47;12.73;;;3.97;;
39996;SDS011;25688;52.338;21.072;2024-01-11T19:00:13;12.35;;;4.05;;
39996;SDS011;25688;52.338;21.072;2024-01-11T19:02:39;11.38;;;4.45;;
39996;SDS011;25688;52.338;21.072;2024-01-11T19:05:05;10.48;;;3.78;;
39996;SDS011;25688;52.338;21.072;2024-01-11T19:07:30;14.93;;;4.78;;
39996;SDS011;25688;52.338;21.072;2024-01-11T19:09:56;11.15;;;4.30;;
39996;SDS011;25688;52.338;21.072;2024-01-11T19:12:25;10.07;;;4.63;;
39996;SDS011;25688;52.338;21.072;2024-01-11T19:14:50;13.15;;;4.32;;
39996;SDS011;25688;52.338;21.072;2024-01-11T19:17:16;10.70;;;4.97;;
39996;SDS011;25688;52.338;21.072;2024-01-11T19:19:41;14.45;;;5.43;;
39996;SDS011;25688;52.338;21.072;2024-01-11T19:22:07;14.48;;;5.22;;
39996;SDS011;25688;52.338;21.072;2024-01-11T19:24:34;14.80;;;4.75;;
39996;SDS011;25688;52.338;21.072;2024-01-11T19:27:01;9.55;;;4.82;;
39996;SDS011;25688;52.338;21.072;2024-01-11T19:29:26;12.55;;;4.53;;
39996;SDS011;25688;52.338;21.072;2024-01-11T19:31:56;14.70;;;5.50;;
39996;SDS011;25688;52.338;21.072;2024-01-11T19:34:22;14.13;;;4.95;;
39996;SDS011;25688;52.338;21.072;2024-01-11T19:36:47;14.25;;;5.32;;
39996;SDS011;25688;52.338;21.072;2024-01-11T19:39:13;11.50;;;4.82;;
39996;SDS011;25688;52.338;21.072;2024-01-11T19:41:39;11.23;;;5.47;;
39996;SDS011;25688;52.338;21.072;2024-01-11T19:44:04;9.45;;;4.90;;
39996;SDS011;25688;52.338;21.072;2024-01-11T19:46:33;10.63;;;4.30;;
39996;SDS011;25688;52.338;21.072;2024-01-11T19:48:59;13.10;;;4.95;;
39996;SDS011;25688;52.338;21.072;2024-01-11T19:51:25;13.73;;;4.05;;
39996;SDS011;25688;52.338;21.072;2024-01-11T19:53:51;10.75;;;4.13;;
39996;SDS011;25688;52.338;21.072;2024-01-11T19:56:18;9.82;;;3.80;;
39996;SDS011;25688;52.338;21.072;2024-01-11T19:58:45;13.13;;;4.50;;
39996;SDS011;25688;52.338;21.072;2024-01-11T20:01:12;17.00;;;4.88;;
39996;SDS011;25688;52.338;21.072;2024-01-11T20:03:38;13.98;;;5.00;;
39996;SDS011;25688;52.338;21.072;2024-01-11T20:06:05;25.05;;;6.30;;
39996;SDS011;25688;52.338;21.072;2024-01-11T20:08:32;14.23;;;4.70;;
39996;SDS011;25688;52.338;21.072;2024-01-11T20:10:59;13.07;;;4.10;;
39996;SDS011;25688;52.338;21.072;2024-01-11T20:13:24;11.68;;;4.35;;
39996;SDS011;25688;52.338;21.072;2024-01-11T20:15:50;9.10;;;3.30;;
39996;SDS011;25688;52.338;21.072;2024-01-11T20:18:17;7.75;;;2.47;;
39996;SDS011;25688;52.338;21.072;2024-01-11T20:20:43;10.05;;;3.03;;
39996;SDS011;25688;52.338;21.072;2024-01-11T20:23:12;10.15;;;3.25;;
39996;SDS011;25688;52.338;21.072;2024-01-11T20:25:39;9.82;;;2.95;;
39996;SDS011;25688;52.338;21.072;2024-01-11T20:28:05;9.98;;;3.50;;
39996;SDS011;25688;52.338;21.072;2024-01-11T20:30:32;8.82;;;3.70;;
39996;SDS011;25688;52.338;21.072;2024-01-11T20:32:58;9.52;;;2.97;;
39996;SDS011;25688;52.338;21.072;2024-01-11T20:35:25;9.40;;;2.72;;
39996;SDS011;25688;52.338;21.072;2024-01-11T20:37:52;13.27;;;3.30;;
39996;SDS011;25688;52.338;21.072;2024-01-11T20:40:18;13.93;;;3.85;;
39996;SDS011;25688;52.338;21.072;2024-01-11T20:42:44;12.23;;;3.08;;
39996;SDS011;25688;52.338;21.072;2024-01-11T20:45:10;8.80;;;2.47;;
39996;SDS011;25688;52.338;21.072;2024-01-11T20:48:55;7.22;;;2.70;;
39996;SDS011;25688;52.338;21.072;2024-01-11T20:51:21;11.05;;;2.83;;
39996;SDS011;25688;52.338;21.072;2024-01-11T20:53:47;11.45;;;3.45;;
39996;SDS011;25688;52.338;21.072;2024-01-11T20:56:14;11.70;;;3.55;;
39996;SDS011;25688;52.338;21.072;2024-01-11T20:58:43;10.30;;;3.15;;
39996;SDS011;25688;52.338;21.072;2024-01-11T21:01:09;9.10;;;3.30;;
39996;SDS011;25688;52.338;21.072;2024-01-11T21:03:36;7.80;;;2.60;;
39996;SDS011;25688;52.338;21.072;2024-01-11T21:06:02;14.57;;;3.92;;
39996;SDS011;25688;52.338;21.072;2024-01-11T21:08:29;10.35;;;2.75;;
39996;SDS011;25688;52.338;21.072;2024-01-11T21:10:55;11.45;;;3.80;;
39996;SDS011;25688;52.338;21.072;2024-01-11T21:13:21;13.20;;;4.15;;
39996;SDS011;25688;52.338;21.072;2024-01-11T21:15:49;10.32;;;4.47;;
39996;SDS011;25688;52.338;21.072;2024-01-11T21:18:15;8.45;;;3.65;;
39996;SDS011;25688;52.338;21.072;2024-01-11T21:20:41;9.85;;;4.07;;
39996;SDS011;25688;52.338;21.072;2024-01-11T21:23:13;11.70;;;3.75;;
39996;SDS011;25688;52.338;21.072;2024-01-11T21:25:39;9.68;;;3.28;;
39996;SDS011;25688;52.338;21.072;2024-01-11T21:28:05;10.52;;;3.55;;
39996;SDS011;25688;52.338;21.072;2024-01-11T21:30:31;7.32;;;3.45;;
39996;SDS011;25688;52.338;21.072;2024-01-11T21:32:57;12.70;;;4.60;;
39996;SDS011;25688;52.338;21.072;2024-01-11T21:35:23;13.52;;;3.92;;
39996;SDS011;25688;52.338;21.072;2024-01-11T21:37:50;11.50;;;3.80;;
39996;SDS011;25688;52.338;21.072;2024-01-11T21:40:16;9.85;;;4.13;;
39996;SDS011;25688;52.338;21.072;2024-01-11T21:42:45;8.45;;;3.95;;
39996;SDS011;25688;52.338;21.072;2024-01-11T21:45:11;10.32;;;3.70;;
39996;SDS011;25688;52.338;21.072;2024-01-11T21:47:38;12.00;;;4.13;;
39996;SDS011;25688;52.338;21.072;2024-01-11T21:50:04;14.02;;;5.13;;
39996;SDS011;25688;52.338;21.072;2024-01-11T21:52:31;12.70;;;4.63;;
39996;SDS011;25688;52.338;21.072;2024-01-11T21:54:57;11.57;;;5.05;;
39996;SDS011;25688;52.338;21.072;2024-01-11T21:57:24;16.45;;;5.68;;
39996;SDS011;25688;52.338;21.072;2024-01-11T21:59:53;15.13;;;5.78;;
39996;SDS011;25688;52.338;21.072;2024-01-11T22:02:22;13.18;;;4.80;;
39996;SDS011;25688;52.338;21.072;2024-01-11T22:04:49;15.25;;;5.00;;
39996;SDS011;25688;52.338;21.072;2024-01-11T22:07:15;15.45;;;4.80;;
39996;SDS011;25688;52.338;21.072;2024-01-11T22:09:41;19.15;;;6.13;;
39996;SDS011;25688;52.338;21.072;2024-01-11T22:12:07;14.45;;;5.07;;
39996;SDS011;25688;52.338;21.072;2024-01-11T22:14:33;15.45;;;4.72;;
39996;SDS011;25688;52.338;21.072;2024-01-11T22:16:59;16.75;;;5.20;;
39996;SDS011;25688;52.338;21.072;2024-01-11T22:19:25;11.88;;;5.20;;
39996;SDS011;25688;52.338;21.072;2024-01-11T22:21:51;13.05;;;5.80;;
39996;SDS011;25688;52.338;21.072;2024-01-11T22:24:17;9.88;;;4.70;;
39996;SDS011;25688;52.338;21.072;2024-01-11T22:26:43;12.15;;;4.85;;
39996;SDS011;25688;52.338;21.072;2024-01-11T22:29:09;17.02;;;4.38;;
39996;SDS011;25688;52.338;21.072;2024-01-11T22:31:35;16.33;;;4.70;;
39996;SDS011;25688;52.338;21.072;2024-01-11T22:34:01;15.40;;;4.35;;
39996;SDS011;25688;52.338;21.072;2024-01-11T22:36:27;11.82;;;4.63;;
39996;SDS011;25688;52.338;21.072;2024-01-11T22:38:55;17.55;;;4.57;;
39996;SDS011;25688;52.338;21.072;2024-01-11T22:41:21;11.95;;;4.75;;
39996;SDS011;25688;52.338;21.072;2024-01-11T22:43:47;12.55;;;4.78;;
39996;SDS011;25688;52.338;21.072;2024-01-11T22:46:14;17.80;;;5.53;;
39996;SDS011;25688;52.338;21.072;2024-01-11T22:48:40;16.70;;;4.45;;
39996;SDS011;25688;52.338;21.072;2024-01-11T22:51:07;10.68;;;4.45;;
39996;SDS011;25688;52.338;21.072;2024-01-11T22:53:33;14.38;;;6.05;;
39996;SDS011;25688;52.338;21.072;2024-01-11T22:55:59;18.60;;;6.22;;
39996;SDS011;25688;52.338;21.072;2024-01-11T22:58:25;16.05;;;5.35;;
39996;SDS011;25688;52.338;21.072;2024-01-11T23:00:51;14.25;;;5.07;;
39996;SDS011;25688;52.338;21.072;2024-01-11T23:03:17;11.52;;;4.75;;
39996;SDS011;25688;52.338;21.072;2024-01-11T23:05:46;13.30;;;4.82;;
39996;SDS011;25688;52.338;21.072;2024-01-11T23:08:57;11.65;;;5.03;;
39996;SDS011;25688;52.338;21.072;2024-01-11T23:11:26;13.70;;;4.80;;
39996;SDS011;25688;52.338;21.072;2024-01-11T23:13:52;15.00;;;4.70;;
39996;SDS011;25688;52.338;21.072;2024-01-11T23:16:18;11.65;;;4.55;;
39996;SDS011;25688;52.338;21.072;2024-01-11T23:18:44;11.50;;;4.85;;
39996;SDS011;25688;52.338;21.072;2024-01-11T23:21:10;16.08;;;5.18;;
39996;SDS011;25688;52.338;21.072;2024-01-11T23:23:36;11.10;;;5.43;;
39996;SDS011;25688;52.338;21.072;2024-01-11T23:26:02;13.40;;;4.60;;
39996;SDS011;25688;52.338;21.072;2024-01-11T23:28:28;15.35;;;5.53;;
39996;SDS011;25688;52.338;21.072;2024-01-11T23:30:54;15.25;;;5.70;;
39996;SDS011;25688;52.338;21.072;2024-01-11T23:33:20;17.13;;;5.43;;
39996;SDS011;25688;52.338;21.072;2024-01-11T23:35:46;16.95;;;5.20;;
39996;SDS011;25688;52.338;21.072;2024-01-11T23:38:12;16.27;;;4.80;;
39996;SDS011;25688;52.338;21.072;2024-01-11T23:40:39;14.48;;;4.88;;
39996;SDS011;25688;52.338;21.072;2024-01-11T23:43:05;14.32;;;5.40;;
39996;SDS011;25688;52.338;21.072;2024-01-11T23:45:31;16.40;;;4.60;;
39996;SDS011;25688;52.338;21.072;2024-01-11T23:47:57;18.67;;;5.63;;
39996;SDS011;25688;52.338;21.072;2024-01-11T23:50:23;15.48;;;4.63;;
39996;SDS011;25688;52.338;21.072;2024-01-11T23:52:49;10.90;;;4.18;;
39996;SDS011;25688;52.338;21.072;2024-01-11T23:55:15;12.40;;;3.92;;
39996;SDS011;25688;52.338;21.072;2024-01-11T23:57:41;10.15;;;4.55;;
